Time;durP1;ratioP1;P1;durP2;ratioP2;P2;SDS_P1;SDS_P2;PMS_P1;PMS_P2;Temp;Humidity;BMP_temperature;BMP_pressure;BME280_temperature;BME280_humidity;BME280_pressure;Samples;Min_cycle;Max_cycle;Signal;HPM_P1;HPM_P2
2022/09/28 00:00:25;;;;;;;15.38;7.72;;;;;;;3.69;100.00;99416.75;2090046;28;20041;-73
2022/09/28 00:01:27;;;;;;;14.05;8.98;;;;;;;3.68;100.00;99420.31;2088638;28;37630;-73
2022/09/28 00:02:31;;;;;;;12.25;8.05;;;;;;;3.70;100.00;99418.50;2089113;28;37727;-74
2022/09/28 00:03:33;;;;;;;10.45;7.55;;;;;;;3.67;100.00;99407.97;2088627;28;31877;-73
2022/09/28 00:04:35;;;;;;;11.63;9.18;;;;;;;3.67;100.00;99418.53;2089052;28;32810;-71
2022/09/28 00:05:37;;;;;;;15.35;7.95;;;;;;;3.67;100.00;99415.03;2089570;28;20052;-71
2022/09/28 00:06:39;;;;;;;12.98;7.88;;;;;;;3.65;100.00;99417.72;2089300;28;32506;-72
2022/09/28 00:07:42;;;;;;;9.23;7.10;;;;;;;3.63;100.00;99416.88;2088817;28;32506;-71
2022/09/28 00:08:48;;;;;;;10.02;7.30;;;;;;;3.61;100.00;99419.53;2089061;28;29464;-72
2022/09/28 00:09:50;;;;;;;8.63;6.47;;;;;;;3.61;100.00;99423.97;2088909;28;35012;-72
2022/09/28 00:10:56;;;;;;;11.98;7.05;;;;;;;3.58;100.00;99413.44;2089616;28;20046;-72
2022/09/28 00:11:58;;;;;;;11.15;7.85;;;;;;;3.55;100.00;99424.06;2079822;28;35965;-73
2022/09/28 00:13:00;;;;;;;12.13;8.55;;;;;;;3.57;100.00;99411.69;2080701;28;28626;-73
2022/09/28 00:14:02;;;;;;;7.60;6.57;;;;;;;3.60;100.00;99414.28;2080082;28;34290;-73
2022/09/28 00:15:04;;;;;;;9.77;7.60;;;;;;;3.59;100.00;99409.91;2080192;28;40016;-73
2022/09/28 00:16:11;;;;;;;10.20;7.47;;;;;;;3.58;100.00;99414.31;2088992;28;35808;-73
2022/09/28 00:17:14;;;;;;;12.35;8.20;;;;;;;3.58;100.00;99410.78;2089157;28;34497;-73
2022/09/28 00:18:16;;;;;;;13.13;7.20;;;;;;;3.61;100.00;99414.25;2088623;28;39260;-73
2022/09/28 00:19:18;;;;;;;9.05;7.38;;;;;;;3.65;100.00;99403.63;2088612;28;36351;-73
2022/09/28 00:20:21;;;;;;;14.23;8.38;;;;;;;3.67;100.00;99409.75;2089046;28;36752;-73
2022/09/28 00:21:27;;;;;;;12.10;8.18;;;;;;;3.70;100.00;99413.22;2088584;28;40156;-73
2022/09/28 00:22:28;;;;;;;10.15;6.80;;;;;;;3.73;100.00;99410.50;2080873;28;20050;-73
2022/09/28 00:23:34;;;;;;;7.22;5.55;;;;;;;3.74;100.00;99404.28;2080572;28;33589;-73
2022/09/28 00:24:36;;;;;;;12.50;8.48;;;;;;;3.76;100.00;99405.13;2089210;28;29093;-72
2022/09/28 00:25:40;;;;;;;12.55;8.85;;;;;;;3.80;100.00;99409.47;2089436;28;20152;-72
2022/09/28 00:26:54;;;;;;;10.73;8.75;;;;;;;3.87;100.00;99404.91;2088831;28;36298;-72
2022/09/28 00:27:56;;;;;;;15.52;10.02;;;;;;;3.92;100.00;99412.78;2089645;28;20049;-73
2022/09/28 00:29:00;;;;;;;12.35;9.95;;;;;;;3.97;100.00;99405.63;2079929;28;25758;-73
2022/09/28 00:30:03;;;;;;;15.73;10.93;;;;;;;4.05;100.00;99408.09;2080552;28;27755;-73
2022/09/28 00:31:05;;;;;;;14.05;10.23;;;;;;;4.12;100.00;99407.91;2080087;28;29456;-72
2022/09/28 00:32:12;;;;;;;16.23;11.73;;;;;;;4.16;100.00;99406.97;2080047;28;31062;-73
2022/09/28 00:33:15;;;;;;;17.17;12.20;;;;;;;4.22;100.00;99405.97;2089904;28;20837;-73
2022/09/28 00:34:18;;;;;;;19.20;11.63;;;;;;;4.26;100.00;99406.75;2088764;28;31719;-73
2022/09/28 00:35:19;;;;;;;17.50;12.60;;;;;;;4.32;100.00;99409.25;2089172;28;22337;-73
2022/09/28 00:36:23;;;;;;;17.02;11.23;;;;;;;4.33;100.00;99401.28;2088845;28;34895;-72
2022/09/28 00:37:24;;;;;;;19.55;13.75;;;;;;;4.37;100.00;99404.75;2080197;28;31027;-72
2022/09/28 00:38:29;;;;;;;17.25;12.13;;;;;;;4.38;100.00;99395.91;2080504;28;20046;-73
2022/09/28 00:39:31;;;;;;;17.33;12.02;;;;;;;4.43;100.00;99395.78;2080398;28;20131;-73
2022/09/28 00:40:33;;;;;;;18.42;12.02;;;;;;;4.41;100.00;99385.22;2071841;28;33914;-73
2022/09/28 00:41:35;;;;;;;16.20;11.30;;;;;;;4.41;100.00;99390.50;2080240;28;30134;-73
2022/09/28 00:42:36;;;;;;;15.35;11.88;;;;;;;4.41;100.00;99393.16;2088892;28;30409;-73
2022/09/28 00:43:38;;;;;;;18.67;11.82;;;;;;;4.42;100.00;99389.63;2089045;28;29862;-73
2022/09/28 00:44:55;;;;;;;16.10;11.50;;;;;;;4.43;100.00;99391.34;2088993;28;27388;-73
2022/09/28 00:46:33;;;;;;;16.33;12.15;;;;;;;4.47;100.00;99392.13;2089405;28;20918;-73
2022/09/28 00:47:55;;;;;;;18.65;12.18;;;;;;;4.48;100.00;99386.81;2077946;28;20038;-73
2022/09/28 00:49:07;;;;;;;16.80;12.05;;;;;;;4.53;100.00;99381.41;2083073;28;29972;-73
2022/09/28 00:50:19;;;;;;;17.27;11.13;;;;;;;4.51;100.00;99384.09;2080154;28;20207;-73
2022/09/28 00:51:22;;;;;;;16.27;11.35;;;;;;;4.55;100.00;99379.59;2081787;28;31389;-73
2022/09/28 00:52:38;;;;;;;17.77;12.85;;;;;;;4.56;100.00;99379.56;2088971;28;27747;-73
2022/09/28 00:53:42;;;;;;;21.80;12.88;;;;;;;4.63;100.00;99379.41;2079914;28;31600;-73
2022/09/28 00:54:46;;;;;;;22.58;13.48;;;;;;;4.65;100.00;99377.59;2071797;28;32640;-73
2022/09/28 00:55:56;;;;;;;20.02;12.77;;;;;;;4.67;100.00;99381.09;2072340;28;20042;-73
2022/09/28 00:57:00;;;;;;;18.88;13.15;;;;;;;4.69;100.00;99379.28;2081760;28;20030;-73
2022/09/28 00:58:07;;;;;;;19.63;12.35;;;;;;;4.70;100.00;99388.94;2088077;28;28130;-73
2022/09/28 00:59:09;;;;;;;17.17;12.68;;;;;;;4.69;100.00;99380.13;2088022;28;20038;-72
2022/09/28 01:00:12;;;;;;;16.17;11.38;;;;;;;4.68;100.00;99377.53;2080321;28;20034;-73
2022/09/28 01:01:14;;;;;;;19.40;10.95;;;;;;;4.68;100.00;99381.03;2080448;28;20065;-73
2022/09/28 01:02:17;;;;;;;20.30;12.32;;;;;;;4.64;100.00;99370.56;2072090;28;20039;-73
2022/09/28 01:03:19;;;;;;;14.02;9.68;;;;;;;4.61;100.00;99374.13;2072633;28;20054;-73
2022/09/28 01:04:22;;;;;;;12.93;10.00;;;;;;;4.58;100.00;99372.44;2089388;28;20127;-73
2022/09/28 01:05:29;;;;;;;15.63;10.25;;;;;;;4.56;100.00;99381.34;2079850;28;20156;-73
2022/09/28 01:06:36;;;;;;;17.30;11.48;;;;;;;4.54;100.00;99381.38;2071761;28;33540;-73
2022/09/28 01:07:39;;;;;;;14.52;10.63;;;;;;;4.54;100.00;99378.72;2064159;28;25571;-73
2022/09/28 01:08:44;;;;;;;15.90;10.60;;;;;;;4.56;100.00;99379.56;2057181;28;20046;-73
2022/09/28 01:09:48;;;;;;;17.08;11.75;;;;;;;4.58;100.00;99376.88;2065389;28;20216;-73
2022/09/28 01:10:50;;;;;;;19.10;12.95;;;;;;;4.59;100.00;99376.84;2080403;28;24237;-73
2022/09/28 01:11:54;;;;;;;17.77;11.70;;;;;;;4.62;100.00;99375.03;2088923;28;20164;-72
2022/09/28 01:12:57;;;;;;;19.95;11.48;;;;;;;4.63;100.00;99376.75;2089313;28;20037;-73
2022/09/28 01:14:00;;;;;;;19.80;13.52;;;;;;;4.68;100.00;99374.88;2080010;28;20030;-72
2022/09/28 01:15:03;;;;;;;15.93;12.15;;;;;;;4.67;100.00;99368.69;2072548;28;20046;-73
2022/09/28 01:16:45;;;;;;;19.50;13.90;;;;;;;4.71;100.00;99370.38;2080357;28;20835;-72
2022/09/28 01:18:16;;;;;;;20.48;12.23;;;;;;;4.66;100.00;99371.38;2079677;28;20217;-73
2022/09/28 01:19:55;;;;;;;17.52;11.57;;;;;;;4.70;100.00;99367.75;2066739;28;20043;-73
2022/09/28 01:21:13;;;;;;;15.50;11.13;;;;;;;4.70;100.00;99370.41;2078618;28;20053;-73
2022/09/28 01:22:33;;;;;;;15.93;11.80;;;;;;;4.69;100.00;99366.88;2074446;28;20043;-73
2022/09/28 01:24:12;;;;;;;16.83;11.23;;;;;;;4.67;100.00;99365.19;2084638;28;20902;-73
2022/09/28 01:25:40;;;;;;;13.65;9.68;;;;;;;4.62;100.00;99364.44;2079713;28;31229;-73
2022/09/28 01:26:49;;;;;;;19.10;10.15;;;;;;;4.58;100.00;99368.94;2088595;28;23731;-73
2022/09/28 01:28:03;;;;;;;17.95;11.70;;;;;;;4.56;100.00;99358.34;2071792;28;23651;-72
2022/09/28 01:29:27;;;;;;;12.57;8.80;;;;;;;4.55;100.00;99361.03;2067802;28;20058;-73
2022/09/28 01:30:44;;;;;;;14.15;8.80;;;;;;;4.53;100.00;99365.50;2074649;28;31114;-73
2022/09/28 01:31:55;;;;;;;12.98;8.73;;;;;;;4.47;100.00;99363.88;2076037;28;20042;-73
2022/09/28 01:33:09;;;;;;;12.55;8.95;;;;;;;4.43;100.00;99363.97;2081341;28;24449;-73
2022/09/28 01:34:19;;;;;;;13.43;9.18;;;;;;;4.40;100.00;99365.78;2071652;28;20887;-73
2022/09/28 01:35:24;;;;;;;11.73;9.80;;;;;;;4.37;100.00;99362.34;2074619;28;34203;-73
2022/09/28 01:36:50;;;;;;;13.85;9.13;;;;;;;4.36;100.00;99356.19;2079783;28;23346;-73
2022/09/28 01:38:02;;;;;;;13.70;9.75;;;;;;;4.36;100.00;99366.78;2066917;28;20042;-73
2022/09/28 01:39:10;;;;;;;13.35;8.65;;;;;;;4.35;100.00;99359.72;2060504;28;21019;-73
2022/09/28 01:40:15;;;;;;;13.02;8.43;;;;;;;4.36;100.00;99360.59;2065989;28;20043;-73
2022/09/28 01:41:20;;;;;;;11.20;8.35;;;;;;;4.36;100.00;99355.28;2072267;28;20210;-73
2022/09/28 01:42:28;;;;;;;11.88;9.23;;;;;;;4.37;100.00;99363.22;2065120;28;20976;-73
2022/09/28 01:43:36;;;;;;;15.40;9.20;;;;;;;4.38;100.00;99359.66;2066088;28;27306;-73
2022/09/28 01:44:46;;;;;;;15.18;10.80;;;;;;;4.38;100.00;99362.31;2073191;28;27886;-73
2022/09/28 01:45:55;;;;;;;11.57;9.35;;;;;;;4.39;100.00;99355.22;2065735;28;20066;-73
2022/09/28 01:47:03;;;;;;;14.55;9.52;;;;;;;4.41;100.00;99356.06;2073655;28;23709;-74
2022/09/28 01:48:08;;;;;;;15.27;9.93;;;;;;;4.43;100.00;99346.28;2080380;28;20929;-73
2022/09/28 01:49:20;;;;;;;15.25;9.82;;;;;;;4.43;100.00;99354.25;2064232;28;20046;-73
2022/09/28 01:50:26;;;;;;;11.23;8.32;;;;;;;4.47;100.00;99352.38;2058944;28;20059;-73
2022/09/28 01:51:37;;;;;;;17.70;11.73;;;;;;;4.51;100.00;99348.78;2066074;28;23805;-73
2022/09/28 01:52:53;;;;;;;15.27;11.93;;;;;;;4.61;100.00;99346.75;2082030;28;20041;-73
2022/09/28 01:54:04;;;;;;;20.05;13.38;;;;;;;4.63;100.00;99343.19;2080033;28;20042;-72
2022/09/28 01:55:42;;;;;;;22.55;12.57;;;;;;;4.67;100.00;99352.78;2065178;28;20864;-73
2022/09/28 01:57:01;;;;;;;16.60;11.43;;;;;;;4.76;100.00;99349.06;2050302;28;20043;-74
2022/09/28 01:58:35;;;;;;;16.45;11.57;;;;;;;4.80;100.00;99356.00;2074123;28;20045;-73
2022/09/28 01:59:45;;;;;;;13.98;9.75;;;;;;;4.81;100.00;99355.13;2084225;28;20111;-73
2022/09/28 02:00:52;;;;;;;12.25;9.05;;;;;;;4.81;100.00;99351.56;2078419;28;30655;-73
2022/09/28 02:02:18;;;;;;;15.50;10.88;;;;;;;4.78;100.00;99348.09;2065248;28;20054;-73
2022/09/28 02:03:32;;;;;;;15.50;9.55;;;;;;;4.78;100.00;99349.88;2071240;28;20045;-73
2022/09/28 02:04:44;;;;;;;12.88;9.23;;;;;;;4.80;100.00;99352.50;2077024;28;20151;-73
2022/09/28 02:06:00;;;;;;;14.45;10.75;;;;;;;4.82;100.00;99348.88;2069104;28;29673;-73
2022/09/28 02:07:11;;;;;;;16.23;10.45;;;;;;;4.86;100.00;99342.59;2073469;28;26024;-73
2022/09/28 02:08:33;;;;;;;16.58;11.98;;;;;;;4.93;100.00;99345.97;2081327;28;20058;-73
2022/09/28 02:09:43;;;;;;;21.17;13.25;;;;;;;4.95;100.00;99347.69;2071205;28;20062;-72
2022/09/28 02:10:59;;;;;;;21.20;13.23;;;;;;;5.01;100.00;99351.06;2067446;28;20046;-73
2022/09/28 02:12:10;;;;;;;18.75;12.30;;;;;;;5.00;100.00;99346.69;2073152;28;20049;-73
2022/09/28 02:13:30;;;;;;;18.88;12.20;;;;;;;5.01;100.00;99343.09;2066257;28;20042;-73
2022/09/28 02:14:36;;;;;;;17.08;11.15;;;;;;;5.03;100.00;99338.66;2069511;28;20073;-73
2022/09/28 02:16:02;;;;;;;15.20;9.77;;;;;;;5.02;100.00;99342.19;2072177;28;20834;-73
2022/09/28 02:17:05;;;;;;;17.08;11.82;;;;;;;5.00;100.00;99336.94;2083449;28;20122;-73
2022/09/28 02:18:08;;;;;;;16.63;11.25;;;;;;;5.00;100.00;99341.38;2079728;28;20042;-73
2022/09/28 02:19:21;;;;;;;16.33;11.50;;;;;;;5.01;100.00;99332.50;2063965;28;20054;-73
2022/09/28 02:20:22;;;;;;;13.75;8.57;;;;;;;4.98;100.00;99334.31;2065556;28;32628;-73
2022/09/28 02:21:40;;;;;;;15.80;9.75;;;;;;;4.99;100.00;99335.22;2079133;28;26712;-73
2022/09/28 02:22:50;;;;;;;15.70;11.18;;;;;;;5.01;100.00;99340.44;2079347;28;20044;-71
2022/09/28 02:23:59;;;;;;;15.07;10.38;;;;;;;5.00;100.00;99336.94;2066099;28;20035;-73
2022/09/28 02:25:19;;;;;;;13.43;9.93;;;;;;;5.00;100.00;99336.06;2074496;28;20042;-72
2022/09/28 02:26:28;;;;;;;16.85;10.52;;;;;;;4.99;100.00;99340.50;2079730;28;21558;-73
2022/09/28 02:28:15;;;;;;;14.45;11.18;;;;;;;4.99;100.00;99335.22;2064678;28;20066;-73
2022/09/28 02:29:17;;;;;;;18.80;11.05;;;;;;;5.06;100.00;99333.25;2060138;28;20139;-72
2022/09/28 02:30:19;;;;;;;20.30;12.07;;;;;;;5.08;100.00;99334.97;2080983;28;20101;-73
2022/09/28 02:31:21;;;;;;;19.45;12.63;;;;;;;5.11;100.00;99334.00;2079713;28;20053;-72
2022/09/28 02:32:25;;;;;;;16.52;11.23;;;;;;;5.13;100.00;99338.38;2079933;28;20041;-73
2022/09/28 02:33:37;;;;;;;20.38;12.80;;;;;;;5.18;100.00;99340.03;2079613;28;20907;-72
2022/09/28 02:34:39;;;;;;;16.98;11.80;;;;;;;5.17;100.00;99333.84;2064936;28;20165;-73
2022/09/28 02:35:42;;;;;;;15.25;11.45;;;;;;;5.16;100.00;99337.41;2064061;28;20043;-72
2022/09/28 02:36:45;;;;;;;18.42;12.52;;;;;;;5.15;100.00;99336.53;2072045;28;20165;-73
2022/09/28 02:37:49;;;;;;;19.05;11.80;;;;;;;5.15;100.00;99336.53;2087763;28;22480;-73
2022/09/28 02:38:52;;;;;;;16.52;11.77;;;;;;;5.16;100.00;99334.75;2071382;28;21027;-73
2022/09/28 02:39:56;;;;;;;19.80;12.32;;;;;;;5.15;100.00;99333.88;2073035;28;21034;-72
2022/09/28 02:41:30;;;;;;;18.30;11.48;;;;;;;5.12;100.00;99341.91;2079377;28;20046;-73
2022/09/28 02:42:45;;;;;;;21.67;12.88;;;;;;;5.13;100.00;99340.13;2071393;28;20151;-73
2022/09/28 02:44:16;;;;;;;16.05;12.60;;;;;;;5.14;100.00;99340.09;2070703;28;20050;-73
2022/09/28 02:45:50;;;;;;;15.57;11.48;;;;;;;5.14;100.00;99334.78;2075063;28;20171;-72
2022/09/28 02:47:08;;;;;;;17.75;12.30;;;;;;;5.13;100.00;99333.06;2083959;28;20041;-72
2022/09/28 02:48:34;;;;;;;17.27;11.65;;;;;;;5.15;100.00;99335.66;2071499;28;20031;-73
2022/09/28 02:49:56;;;;;;;19.48;12.57;;;;;;;5.19;100.00;99342.63;2073251;28;21073;-73
2022/09/28 02:51:26;;;;;;;23.05;13.55;;;;;;;5.18;100.00;99338.22;2079449;28;20878;-73
2022/09/28 02:53:07;;;;;;;17.00;11.43;;;;;;;5.18;100.00;99338.22;2080983;28;20038;-73
2022/09/28 02:54:46;;;;;;;17.70;11.32;;;;;;;5.16;100.00;99330.31;2085155;28;20513;-72
2022/09/28 02:56:19;;;;;;;20.85;12.95;;;;;;;5.18;100.00;99345.31;2079274;28;20053;-73
2022/09/28 02:58:03;;;;;;;17.27;11.18;;;;;;;5.11;100.00;99340.16;2075173;28;20959;-73
2022/09/28 02:59:43;;;;;;;22.00;10.50;;;;;;;5.04;100.00;99335.06;2086331;28;20033;-73
2022/09/28 03:01:18;;;;;;;15.35;10.82;;;;;;;4.98;100.00;99333.47;2088799;28;20041;-72
2022/09/28 03:02:35;;;;;;;12.82;9.15;;;;;;;4.95;100.00;99339.72;2071118;28;20081;-73
2022/09/28 03:04:29;;;;;;;18.60;11.88;;;;;;;4.95;100.00;99342.38;2073909;28;20043;-73
2022/09/28 03:05:59;;;;;;;18.98;11.85;;;;;;;4.94;100.00;99330.00;2072956;28;20918;-72
2022/09/28 03:07:37;;;;;;;16.33;10.40;;;;;;;4.95;100.00;99345.03;2067552;28;20189;-73
2022/09/28 03:09:03;;;;;;;19.75;12.80;;;;;;;4.97;100.00;99332.59;2066615;28;36193;-73
2022/09/28 03:10:40;;;;;;;16.00;11.95;;;;;;;4.96;100.00;99338.78;2082006;28;20122;-73
2022/09/28 03:11:49;;;;;;;17.80;12.68;;;;;;;4.94;100.00;99343.28;2071493;28;20046;-72
2022/09/28 03:12:53;;;;;;;20.97;14.53;;;;;;;4.94;100.00;99335.31;2077442;28;21024;-72
2022/09/28 03:13:55;;;;;;;20.20;14.13;;;;;;;4.95;100.00;99342.38;2071514;28;20281;-72
2022/09/28 03:15:27;;;;;;;22.17;14.15;;;;;;;4.94;100.00;99348.56;2066081;28;20055;-73
2022/09/28 03:16:31;;;;;;;15.35;11.82;;;;;;;4.93;100.00;99336.22;2074099;28;20827;-73
2022/09/28 03:17:34;;;;;;;22.58;13.30;;;;;;;4.94;100.00;99340.63;2079605;28;20220;-73
2022/09/28 03:18:36;;;;;;;19.13;13.25;;;;;;;4.94;100.00;99339.75;2071226;28;20046;-73
2022/09/28 03:19:38;;;;;;;16.13;12.32;;;;;;;4.93;100.00;99338.00;2063500;28;20165;-73
2022/09/28 03:20:39;;;;;;;19.33;12.10;;;;;;;4.92;100.00;99337.13;2071101;28;20043;-73
2022/09/28 03:21:41;;;;;;;22.30;13.73;;;;;;;4.94;100.00;99345.06;2072332;28;20812;-73
2022/09/28 03:22:44;;;;;;;21.25;14.00;;;;;;;4.93;100.00;99343.31;2082128;28;20038;-73
2022/09/28 03:24:01;;;;;;;21.38;13.55;;;;;;;4.93;100.00;99341.50;2084476;28;20930;-73
2022/09/28 03:25:06;;;;;;;23.30;14.23;;;;;;;4.95;100.00;99344.13;2082014;28;20052;-73
2022/09/28 03:26:11;;;;;;;20.50;13.07;;;;;;;4.98;100.00;99334.31;2083056;28;20156;-73
2022/09/28 03:27:13;;;;;;;21.00;14.82;;;;;;;4.98;100.00;99339.63;2082034;28;20089;-73
2022/09/28 03:28:16;;;;;;;19.90;13.75;;;;;;;4.99;100.00;99343.16;2082551;28;20115;-73
2022/09/28 03:29:19;;;;;;;23.02;14.98;;;;;;;4.98;100.00;99339.63;2090470;28;20113;-73
2022/09/28 03:30:25;;;;;;;20.30;13.65;;;;;;;4.99;100.00;99340.50;2082283;28;20046;-72
2022/09/28 03:31:28;;;;;;;21.23;13.77;;;;;;;5.00;100.00;99339.59;2082256;28;20128;-72
2022/09/28 03:32:29;;;;;;;20.58;13.98;;;;;;;5.00;100.00;99341.38;2090316;28;20045;-72
2022/09/28 03:33:31;;;;;;;19.55;14.32;;;;;;;4.97;100.00;99332.59;2082127;28;20099;-73
2022/09/28 03:34:34;;;;;;;20.63;14.52;;;;;;;4.96;100.00;99340.59;2082153;28;20872;-72
2022/09/28 03:35:36;;;;;;;18.75;13.20;;;;;;;4.93;100.00;99336.22;2081894;28;20549;-73
2022/09/28 03:36:38;;;;;;;20.50;13.63;;;;;;;4.92;100.00;99342.44;2090274;28;20993;-73
2022/09/28 03:37:40;;;;;;;18.50;12.35;;;;;;;4.89;100.00;99347.81;2081669;28;20077;-73
2022/09/28 03:38:42;;;;;;;18.75;12.82;;;;;;;4.86;100.00;99344.38;2082101;28;21014;-73
2022/09/28 03:39:44;;;;;;;17.13;11.02;;;;;;;4.86;100.00;99349.69;2081576;28;20045;-73
2022/09/28 03:40:58;;;;;;;19.73;13.10;;;;;;;4.83;100.00;99342.69;2082122;28;21001;-73
2022/09/28 03:42:03;;;;;;;21.23;13.55;;;;;;;4.86;100.00;99339.94;2081828;28;20928;-73
2022/09/28 03:43:09;;;;;;;18.17;11.20;;;;;;;4.85;100.00;99340.88;2074199;28;21022;-73
2022/09/28 03:44:14;;;;;;;15.15;10.20;;;;;;;4.82;100.00;99348.88;2074062;28;20900;-73
2022/09/28 03:45:16;;;;;;;14.35;10.98;;;;;;;4.80;100.00;99347.19;2073976;28;20160;-73
2022/09/28 03:46:20;;;;;;;18.83;12.38;;;;;;;4.78;100.00;99341.94;2074065;28;20900;-73
2022/09/28 03:47:25;;;;;;;18.13;11.77;;;;;;;4.78;100.00;99348.09;2082774;28;20046;-73
2022/09/28 03:48:32;;;;;;;19.17;12.25;;;;;;;4.77;100.00;99350.78;2090198;28;23179;-73
2022/09/28 03:49:36;;;;;;;12.90;9.98;;;;;;;4.75;100.00;99347.28;2090984;28;25543;-73
2022/09/28 03:50:38;;;;;;;16.38;12.10;;;;;;;4.70;100.00;99347.44;2081726;28;20892;-73
2022/09/28 03:51:43;;;;;;;12.75;9.15;;;;;;;4.69;100.00;99344.81;2074198;28;20097;-73
2022/09/28 03:52:45;;;;;;;13.80;10.25;;;;;;;4.66;100.00;99356.34;2082666;28;20136;-73
2022/09/28 03:53:46;;;;;;;13.23;9.73;;;;;;;4.65;100.00;99348.41;2082092;28;20176;-73
2022/09/28 03:54:48;;;;;;;12.80;10.32;;;;;;;4.63;100.00;99348.50;2081823;28;20046;-73
2022/09/28 03:55:52;;;;;;;17.65;10.95;;;;;;;4.63;100.00;99352.91;2081937;28;20046;-73
2022/09/28 03:56:54;;;;;;;14.60;10.75;;;;;;;4.63;100.00;99343.19;2082147;28;20049;-73
2022/09/28 03:57:56;;;;;;;13.38;9.50;;;;;;;4.63;100.00;99348.50;2081806;28;20172;-73
2022/09/28 03:58:57;;;;;;;11.95;9.27;;;;;;;4.63;100.00;99348.50;2081578;28;32758;-73
2022/09/28 04:00:01;;;;;;;13.82;8.77;;;;;;;4.62;100.00;99346.72;2081774;28;20038;-73
2022/09/28 04:01:07;;;;;;;11.75;9.13;;;;;;;4.62;100.00;99345.88;2082476;28;20882;-73
2022/09/28 04:02:13;;;;;;;;;;;;;;;4.59;100.00;99347.69;2090508;28;21012;-73
2022/09/28 04:03:16;;;;;;;11.38;8.57;;;;;;;4.58;100.00;99345.06;2082259;28;19929;-73
2022/09/28 04:04:20;;;;;;;13.75;8.93;;;;;;;4.57;100.00;99338.88;2081826;28;20041;-73
2022/09/28 04:05:22;;;;;;;13.88;8.85;;;;;;;4.58;100.00;99345.94;2089951;28;28297;-73
2022/09/28 04:06:24;;;;;;;12.25;10.55;;;;;;;4.57;100.00;99343.31;2090204;28;25850;-73
2022/09/28 04:07:26;;;;;;;16.02;11.68;;;;;;;4.57;100.00;99349.47;2081975;28;20077;-73
2022/09/28 04:08:31;;;;;;;15.02;10.57;;;;;;;4.56;100.00;99347.75;2074152;28;20116;-72
2022/09/28 04:09:33;;;;;;;13.27;9.68;;;;;;;4.58;100.00;99340.63;2073444;28;20844;-73
2022/09/28 04:10:35;;;;;;;13.52;10.25;;;;;;;4.63;100.00;99334.34;2082295;28;20135;-73
2022/09/28 04:11:39;;;;;;;12.88;10.00;;;;;;;4.64;100.00;99338.75;2081901;28;20042;-73
2022/09/28 04:13:01;;;;;;;13.07;9.88;;;;;;;4.65;100.00;99343.13;2085651;28;20048;-73
2022/09/28 04:14:03;;;;;;;20.70;10.68;;;;;;;4.64;100.00;99338.75;2082008;28;20159;-73
2022/09/28 04:15:06;;;;;;;13.27;9.50;;;;;;;4.64;100.00;99333.44;2082470;28;20042;-73
2022/09/28 04:16:10;;;;;;;12.50;9.60;;;;;;;4.62;100.00;99340.56;2090153;28;20846;-72
2022/09/28 04:17:21;;;;;;;11.05;9.07;;;;;;;4.61;100.00;99341.47;2081592;28;20050;-73
2022/09/28 04:18:23;;;;;;;15.05;10.25;;;;;;;4.59;100.00;99342.38;2074659;28;20053;-73
2022/09/28 04:19:43;;;;;;;;;;;;;;;4.61;100.00;99330.84;2084669;28;20057;-73
2022/09/28 04:21:07;;;;;;;12.00;8.90;;;;;;;4.61;100.00;99337.03;2089170;28;19921;-73
2022/09/28 04:22:16;;;;;;;10.68;8.32;;;;;;;4.62;100.00;99335.25;2081944;28;20077;-72
2022/09/28 04:23:19;;;;;;;11.93;8.50;;;;;;;4.62;100.00;99335.25;2073836;28;20129;-73
2022/09/28 04:24:20;;;;;;;13.63;10.15;;;;;;;4.62;100.00;99341.44;2081351;28;20057;-73
2022/09/28 04:25:22;;;;;;;13.27;10.52;;;;;;;4.62;100.00;99338.78;2081493;28;20814;-73
2022/09/28 04:26:26;;;;;;;15.75;10.65;;;;;;;4.66;100.00;99336.94;2082123;28;20878;-73
2022/09/28 04:30:10;;;;;;;24.02;12.95;;;;;;;4.69;100.00;99335.06;2076187;28;20840;-73
2022/09/28 04:31:20;;;;;;;14.98;10.70;;;;;;;4.71;100.00;99340.34;2076789;28;20042;-73
2022/09/28 04:32:22;;;;;;;11.77;9.57;;;;;;;4.72;100.00;99336.75;2066844;28;20039;-72
2022/09/28 04:33:24;;;;;;;14.82;10.70;;;;;;;4.70;100.00;99334.19;2073143;28;20043;-73
2022/09/28 04:34:27;;;;;;;19.20;10.52;;;;;;;4.69;100.00;99334.22;2072593;28;20768;-73
2022/09/28 04:35:32;;;;;;;12.93;10.27;;;;;;;4.69;100.00;99336.84;2072937;28;20883;-72
2022/09/28 04:36:36;;;;;;;16.48;10.25;;;;;;;4.69;100.00;99337.72;2080891;28;20880;-73
2022/09/28 04:37:37;;;;;;;14.05;10.45;;;;;;;4.69;100.00;99342.16;2080588;28;20046;-72
2022/09/28 04:38:40;;;;;;;17.75;12.60;;;;;;;4.73;100.00;99338.50;2073234;28;20054;-73
2022/09/28 04:39:54;;;;;;;17.73;12.73;;;;;;;4.80;100.00;99336.59;2073448;28;20042;-73
2022/09/28 04:40:55;;;;;;;20.30;12.70;;;;;;;4.84;100.00;99336.44;2072111;28;30905;-73
2022/09/28 04:42:00;;;;;;;20.13;13.55;;;;;;;4.87;100.00;99335.53;2080236;28;20045;-73
2022/09/28 04:43:02;;;;;;;18.00;13.02;;;;;;;4.91;100.00;99343.34;2073008;28;20467;-73
2022/09/28 04:44:04;;;;;;;20.63;13.68;;;;;;;4.94;100.00;99334.47;2072129;28;20089;-73
2022/09/28 04:45:07;;;;;;;21.90;13.20;;;;;;;4.94;100.00;99330.00;2080596;28;20842;-73
2022/09/28 04:46:13;;;;;;;19.15;12.35;;;;;;;4.96;100.00;99330.84;2081171;28;20041;-73
2022/09/28 04:47:22;;;;;;;14.70;10.32;;;;;;;4.96;100.00;99344.09;2080726;28;20047;-73
2022/09/28 04:48:41;;;;;;;16.73;11.00;;;;;;;4.94;100.00;99334.47;2074781;28;20904;-73
2022/09/28 04:49:53;;;;;;;18.17;12.40;;;;;;;4.93;100.00;99336.22;2082282;28;20132;-73
2022/09/28 04:51:01;;;;;;;13.40;10.18;;;;;;;4.90;100.00;99336.31;2072047;28;20100;-73
2022/09/28 04:52:05;;;;;;;14.77;11.15;;;;;;;4.88;100.00;99343.44;2064971;28;20035;-73
2022/09/28 04:53:08;;;;;;;15.18;11.70;;;;;;;4.88;100.00;99339.91;2072844;28;20045;-73
2022/09/28 04:54:10;;;;;;;16.27;10.95;;;;;;;4.88;100.00;99339.91;2080775;28;20125;-73
2022/09/28 04:55:13;;;;;;;16.58;11.57;;;;;;;4.90;100.00;99349.56;2080459;28;20026;-73
2022/09/28 04:56:16;;;;;;;17.88;11.98;;;;;;;4.89;100.00;99339.88;2080077;28;20042;-72
2022/09/28 04:57:20;;;;;;;16.45;10.75;;;;;;;4.92;100.00;99341.59;2080280;28;20041;-72
2022/09/28 04:58:22;;;;;;;17.65;11.60;;;;;;;4.92;100.00;99342.44;2081284;28;20838;-73
2022/09/28 04:59:24;;;;;;;18.08;12.30;;;;;;;4.93;100.00;99341.50;2080519;28;20051;-72
2022/09/28 05:00:31;;;;;;;19.60;12.88;;;;;;;4.95;100.00;99339.72;2080410;28;20045;-72
2022/09/28 05:01:50;;;;;;;16.80;12.00;;;;;;;4.96;100.00;99343.25;2080542;28;20149;-73
2022/09/28 05:03:10;;;;;;;18.17;12.68;;;;;;;4.97;100.00;99345.84;2083582;28;20948;-73
2022/09/28 05:04:39;;;;;;;17.65;11.85;;;;;;;5.01;100.00;99348.41;2079850;28;20144;-73
2022/09/28 05:06:21;;;;;;;14.18;9.82;;;;;;;5.03;100.00;99362.53;2052426;28;20158;-73
2022/09/28 05:07:30;;;;;;;12.95;10.38;;;;;;;5.03;100.00;99347.47;2055489;28;20166;-72
2022/09/28 05:08:34;;;;;;;15.18;11.70;;;;;;;5.05;100.00;99350.09;2055442;28;20907;-73
2022/09/28 05:09:36;;;;;;;15.18;10.68;;;;;;;5.06;100.00;99351.81;2055519;28;20058;-73
2022/09/28 05:10:39;;;;;;;16.20;12.30;;;;;;;5.07;100.00;99348.25;2055168;28;20596;-73
2022/09/28 05:11:41;;;;;;;18.92;13.60;;;;;;;5.08;100.00;99355.28;2058884;28;20039;-72
2022/09/28 05:12:48;;;;;;;18.48;12.48;;;;;;;5.11;100.00;99352.56;2072847;28;20985;-73
2022/09/28 05:13:50;;;;;;;19.23;12.57;;;;;;;5.13;100.00;99346.31;2080490;28;20042;-73
2022/09/28 05:14:53;;;;;;;18.55;13.27;;;;;;;5.14;100.00;99352.50;2080258;28;20100;-73
2022/09/28 05:15:57;;;;;;;20.05;13.52;;;;;;;5.16;100.00;99355.97;2071867;28;20864;-73
2022/09/28 05:17:06;;;;;;;16.08;11.68;;;;;;;5.15;100.00;99349.81;2064888;28;20967;-73
2022/09/28 05:18:28;;;;;;;18.15;13.15;;;;;;;5.16;100.00;99351.53;2079124;28;20965;-73
2022/09/28 05:19:37;;;;;;;18.35;12.13;;;;;;;5.19;100.00;99347.06;2089169;28;20037;-73
2022/09/28 05:20:40;;;;;;;19.58;13.38;;;;;;;5.21;100.00;99346.13;2089438;28;20898;-73
2022/09/28 05:21:47;;;;;;;17.45;13.75;;;;;;;5.21;100.00;99351.41;2079720;28;20030;-72
2022/09/28 05:22:49;;;;;;;18.27;13.23;;;;;;;5.25;100.00;99349.56;2080945;28;25585;-73